Time;durP1;ratioP1;P1;durP2;ratioP2;P2;SDS_P1;SDS_P2;PMS_P1;PMS_P2;Temp;Humidity;BMP_temperature;BMP_pressure;BME280_temperature;BME280_humidity;BME280_pressure;Samples;Min_cycle;Max_cycle;Signal;HPM_P1;HPM_P2
2022/05/11 00:02:01;;;;;;;15.27;9.07;;;;;;;30.78;70.83;100781.88;5035583;28;69924;-37
2022/05/11 00:04:31;;;;;;;17.67;9.98;;;;;;;30.88;71.03;100798.50;5042082;28;65946;-37
2022/05/11 00:07:01;;;;;;;27.67;8.63;;;;;;;30.92;70.89;100791.59;5039465;28;70628;-37
2022/05/11 00:09:31;;;;;;;13.70;8.85;;;;;;;30.96;71.30;100798.22;5040789;28;65290;-37
2022/05/11 00:12:02;;;;;;;17.02;9.02;;;;;;;30.98;71.09;100801.53;5042588;28;69574;-41
2022/05/11 00:14:33;;;;;;;14.60;8.80;;;;;;;30.99;70.46;100814.03;5042778;28;65642;-37
2022/05/11 00:17:03;;;;;;;23.58;7.93;;;;;;;31.04;70.97;100806.06;5039335;28;70317;-34
2022/05/11 00:19:34;;;;;;;18.52;7.95;;;;;;;31.05;70.96;100802.28;5036826;28;65989;-35
2022/05/11 00:22:04;;;;;;;19.63;7.60;;;;;;;31.11;70.56;100809.53;5034927;28;69519;-33
2022/05/11 00:24:36;;;;;;;13.93;7.35;;;;;;;31.14;71.07;100810.97;5037324;28;65859;-34
2022/05/11 00:27:06;;;;;;;15.00;8.13;;;;;;;31.12;70.89;100805.78;5034569;28;68590;-35
2022/05/11 00:29:37;;;;;;;13.10;7.60;;;;;;;31.03;70.34;100798.97;5039450;28;65571;-35
2022/05/11 00:32:08;;;;;;;12.90;7.03;;;;;;;31.22;70.74;100818.78;5040536;28;69326;-35
2022/05/11 00:34:38;;;;;;;11.85;7.40;;;;;;;31.25;70.12;100822.94;5041142;28;66216;-35
2022/05/11 00:37:08;;;;;;;12.57;7.20;;;;;;;31.34;68.04;100827.00;5026176;28;69253;-35
2022/05/11 00:39:38;;;;;;;7.68;5.53;;;;;;;31.45;67.03;100822.75;5022702;28;65741;-34
2022/05/11 00:42:09;;;;;;;7.38;5.13;;;;;;;31.41;66.74;100806.13;5032705;28;70160;-35
2022/05/11 00:44:40;;;;;;;6.13;5.63;;;;;;;31.53;66.21;100820.56;5025351;28;67444;-34
2022/05/11 00:47:42;;;;;;;8.50;5.68;;;;;;;31.16;67.42;100760.91;5020667;28;69891;-35
2022/05/11 00:50:32;;;;;;;9.23;5.10;;;;;;;31.50;66.22;100806.66;5020856;28;66793;-34
2022/05/11 00:53:11;;;;;;;5.40;4.90;;;;;;;31.38;65.67;100771.34;5020013;28;69026;-33
2022/05/11 00:55:45;;;;;;;5.57;5.07;;;;;;;31.71;64.86;100821.63;5020093;28;65276;-34
2022/05/11 00:58:26;;;;;;;5.95;5.40;;;;;;;31.90;65.29;100852.25;5020326;28;69841;-35
2022/05/11 01:00:57;;;;;;;6.38;5.50;;;;;;;31.89;63.96;100846.00;5019477;28;65737;-34
2022/05/11 01:03:34;;;;;;;5.60;5.10;;;;;;;31.58;64.21;100795.50;5019529;28;70197;-33
2022/05/11 01:06:07;;;;;;;10.65;5.65;;;;;;;31.80;63.49;100815.66;5020836;28;66221;-36
2022/05/11 01:08:39;;;;;;;14.40;5.85;;;;;;;32.05;63.57;100850.84;5019413;28;70393;-34
2022/05/11 01:11:10;;;;;;;7.82;5.93;;;;;;;31.99;63.41;100840.91;5020461;28;66355;-34
2022/05/11 01:13:42;;;;;;;6.35;5.72;;;;;;;32.12;63.19;100849.91;5022528;28;70047;-35
2022/05/11 01:16:13;;;;;;;5.68;5.18;;;;;;;32.11;62.73;100842.84;5039267;28;66406;-33
2022/05/11 01:18:45;;;;;;;6.03;5.50;;;;;;;32.12;62.74;100849.91;5040658;28;69626;-35
2022/05/11 01:21:15;;;;;;;8.73;5.25;;;;;;;32.17;62.62;100858.19;5041098;28;66042;-34
2022/05/11 01:23:50;;;;;;;5.80;5.20;;;;;;;32.22;62.48;100858.34;5040344;28;70145;-34
2022/05/11 01:26:20;;;;;;;7.20;5.78;;;;;;;32.24;62.37;100864.38;5037120;28;66149;-34
2022/05/11 01:28:54;;;;;;;8.60;5.82;;;;;;;32.26;62.07;100862.25;5034137;28;69968;-35
2022/05/11 01:31:24;;;;;;;6.05;5.55;;;;;;;32.20;61.88;100864.00;5026199;28;66161;-34
2022/05/11 01:33:55;;;;;;;5.35;4.93;;;;;;;32.33;61.91;100883.88;5025529;28;69993;-35
2022/05/11 01:36:34;;;;;;;7.13;5.18;;;;;;;32.29;61.87;100872.66;5032472;28;65388;-35
2022/05/11 01:39:09;;;;;;;10.05;5.80;;;;;;;31.98;61.67;100817.56;5032511;28;71090;-36
2022/05/11 01:41:49;;;;;;;5.68;5.28;;;;;;;32.36;61.11;100862.53;5034818;28;66201;-34
2022/05/11 01:44:21;;;;;;;7.65;5.20;;;;;;;32.01;61.30;100808.97;5036645;28;69693;-35
2022/05/11 01:46:55;;;;;;;5.47;5.03;;;;;;;32.39;61.07;100856.63;5039688;28;66272;-35
2022/05/11 01:49:27;;;;;;;7.10;5.20;;;;;;;32.49;61.02;100870.50;5038944;28;69652;-35
2022/05/11 01:51:58;;;;;;;7.80;5.43;;;;;;;32.51;60.66;100866.72;5039811;28;65686;-35
2022/05/11 01:54:28;;;;;;;5.88;5.28;;;;;;;32.53;60.69;100861.91;5037811;28;71411;-34
2022/05/11 01:57:00;;;;;;;4.68;4.30;;;;;;;32.42;60.40;100833.63;5054643;28;66095;-34
2022/05/11 01:59:30;;;;;;;6.05;5.45;;;;;;;32.56;60.57;100845.13;5040359;28;70266;-35
2022/05/11 02:02:00;;;;;;;6.32;5.25;;;;;;;32.16;60.23;100786.81;5040218;28;66296;-34
2022/05/11 02:10:08;;;;;;;5.25;4.72;;;;;;;32.68;60.17;100870.44;5053845;28;70593;-34
2022/05/11 02:12:38;;;;;;;5.13;4.60;;;;;;;32.68;60.00;100865.00;5039604;28;65759;-34
2022/05/11 02:15:10;;;;;;;4.93;4.53;;;;;;;32.70;59.65;100863.69;5037038;28;70129;-35
2022/05/11 02:17:41;;;;;;;8.02;5.22;;;;;;;32.75;59.94;100868.44;5039174;28;66665;-33
2022/05/11 02:20:14;;;;;;;5.55;4.88;;;;;;;32.76;59.70;100870.09;5040151;28;68865;-34
2022/05/11 02:22:46;;;;;;;5.47;4.65;;;;;;;32.81;59.54;100875.66;5039013;28;66499;-35
2022/05/11 02:25:18;;;;;;;5.40;4.90;;;;;;;32.83;59.41;100868.09;5039026;28;70200;-34
2022/05/11 02:27:50;;;;;;;7.30;5.18;;;;;;;32.38;59.12;100797.16;5038472;28;66662;-34
2022/05/11 02:30:30;;;;;;;5.13;4.40;;;;;;;32.42;59.15;100796.44;5039005;28;70737;-34
2022/05/11 02:33:00;;;;;;;7.13;5.47;;;;;;;32.84;58.96;100869.75;5040136;28;66296;-33
2022/05/11 02:35:31;;;;;;;5.40;4.82;;;;;;;32.91;58.88;100875.91;5038631;28;69293;-33
2022/05/11 02:38:06;;;;;;;5.40;4.90;;;;;;;32.49;58.93;100808.06;5021972;28;64518;-35
2022/05/11 02:40:39;;;;;;;6.63;4.55;;;;;;;32.93;58.96;100873.81;5039944;28;70036;-34
2022/05/11 02:43:10;;;;;;;8.98;5.32;;;;;;;32.97;58.97;100874.16;5039225;28;67028;-34
2022/05/11 02:45:42;;;;;;;5.20;4.70;;;;;;;32.97;58.77;100862.47;5040497;28;70260;-35
2022/05/11 02:48:16;;;;;;;5.35;4.85;;;;;;;32.61;58.65;100804.53;5028848;28;65546;-34
2022/05/11 02:50:49;;;;;;;6.60;5.18;;;;;;;32.97;58.53;100857.03;5020858;28;69277;-34
2022/05/11 02:53:21;;;;;;;9.98;5.20;;;;;;;33.00;58.53;100851.16;5023665;28;65751;-35
2022/05/11 02:55:54;;;;;;;5.43;4.57;;;;;;;32.64;58.54;100791.31;5022411;28;70172;-35
2022/05/11 02:58:27;;;;;;;6.75;4.90;;;;;;;32.63;58.70;100786.13;5022022;28;66105;-35
2022/05/11 03:01:00;;;;;;;10.60;4.68;;;;;;;33.01;58.59;100841.91;5023402;28;70286;-35
2022/05/11 03:03:34;;;;;;;5.43;4.93;;;;;;;33.09;58.29;100847.81;5022302;28;66131;-36
2022/05/11 03:06:05;;;;;;;4.82;4.40;;;;;;;33.09;58.35;100847.00;5021455;28;69477;-35
2022/05/11 03:08:38;;;;;;;6.82;4.63;;;;;;;33.00;58.36;100824.78;5021508;28;66079;-35
2022/05/11 03:11:08;;;;;;;4.88;4.38;;;;;;;33.15;58.34;100849.63;5023176;28;69963;-35
2022/05/11 03:13:38;;;;;;;5.43;4.88;;;;;;;33.06;58.13;100829.28;5022985;28;66701;-36
2022/05/11 03:16:09;;;;;;;6.88;4.45;;;;;;;33.19;58.17;100841.81;5020002;28;70496;-34
2022/05/11 03:18:40;;;;;;;5.88;4.20;;;;;;;33.23;58.10;100847.59;5006041;28;65835;-35
2022/05/11 03:21:11;;;;;;;7.45;4.63;;;;;;;33.20;58.01;100840.75;5040587;28;70436;-34
2022/05/11 03:23:42;;;;;;;5.63;4.28;;;;;;;33.26;58.00;100847.94;5023836;28;66060;-35
2022/05/11 03:26:14;;;;;;;5.43;3.97;;;;;;;33.27;57.89;100846.88;5042731;28;70095;-34
2022/05/11 03:28:44;;;;;;;4.78;4.30;;;;;;;33.20;57.89;100832.59;5043379;28;66059;-35
2022/05/11 03:31:15;;;;;;;4.60;4.07;;;;;;;33.32;57.80;100844.28;5038798;28;69601;-37
2022/05/11 03:36:37;;;;;;;4.47;3.85;;;;;;;33.34;57.70;100835.88;5040976;28;70783;-35
2022/05/11 03:39:08;;;;;;;5.50;4.03;;;;;;;33.33;58.02;100835.06;5041332;28;65306;-36
2022/05/11 03:41:38;;;;;;;7.32;3.38;;;;;;;33.36;57.42;100823.69;5042077;28;70456;-38
2022/05/11 03:44:08;;;;;;;4.82;4.43;;;;;;;33.35;57.72;100816.63;5039561;28;65822;-34
2022/05/11 03:46:39;;;;;;;4.07;3.75;;;;;;;33.44;57.61;100818.97;5042395;28;69481;-34
2022/05/11 03:49:10;;;;;;;5.07;3.97;;;;;;;33.45;57.46;100820.63;5034207;28;66236;-33
2022/05/11 03:51:40;;;;;;;4.57;3.60;;;;;;;33.48;57.49;100820.94;5023420;28;70740;-34
2022/05/11 03:54:10;;;;;;;10.25;3.88;;;;;;;33.51;57.40;100827.81;5022355;28;65673;-33
2022/05/11 03:56:40;;;;;;;6.18;3.50;;;;;;;33.52;57.17;100818.59;5019808;28;70245;-34
2022/05/11 03:59:11;;;;;;;4.55;4.15;;;;;;;33.54;57.32;100813.75;5019696;28;66818;-34
2022/05/11 04:01:41;;;;;;;6.93;3.85;;;;;;;33.56;57.10;100817.06;5021152;28;69978;-35
2022/05/11 04:04:12;;;;;;;3.53;3.22;;;;;;;33.52;57.00;100807.72;5022147;28;66771;-35
2022/05/11 04:06:43;;;;;;;8.15;3.50;;;;;;;33.59;57.23;100794.84;5019351;28;69804;-34
2022/05/11 04:09:13;;;;;;;4.03;3.67;;;;;;;33.51;56.87;100787.03;5019531;28;65872;-36
2022/05/11 04:11:44;;;;;;;4.00;3.67;;;;;;;33.55;57.32;100788.25;5020885;28;69297;-34
2022/05/11 04:14:14;;;;;;;6.55;3.72;;;;;;;33.50;56.84;100774.50;5021953;28;66472;-33
2022/05/11 04:16:44;;;;;;;5.75;3.63;;;;;;;33.69;57.13;100789.59;5020391;28;70155;-36
2022/05/11 04:19:14;;;;;;;3.35;3.08;;;;;;;33.72;57.09;100789.13;5003306;28;66093;-34
2022/05/11 04:21:45;;;;;;;3.65;3.35;;;;;;;33.73;56.97;100785.31;5020173;28;68939;-34
2022/05/11 04:24:15;;;;;;;4.65;3.35;;;;;;;33.74;56.96;100778.84;5020250;28;65103;-34
2022/05/11 04:26:45;;;;;;;4.13;3.67;;;;;;;33.71;56.77;100763.00;5019399;28;70419;-37
2022/05/11 04:29:17;;;;;;;3.50;3.20;;;;;;;33.48;56.63;100723.06;5030061;28;66158;-34
2022/05/11 04:31:55;;;;;;;4.22;3.78;;;;;;;33.63;56.50;100741.63;5041212;28;69708;-35
2022/05/11 04:34:25;;;;;;;3.53;3.10;;;;;;;33.89;56.90;100774.75;5040430;28;66549;-35
2022/05/11 04:36:56;;;;;;;6.00;3.50;;;;;;;33.88;56.35;100765.75;5041832;28;69538;-34
2022/05/11 04:39:26;;;;;;;3.60;3.25;;;;;;;33.93;56.50;100756.84;5041867;28;66316;-36
2022/05/11 04:41:56;;;;;;;5.75;3.38;;;;;;;33.92;56.71;100749.75;5039394;28;70495;-37
2022/05/11 04:44:28;;;;;;;5.22;3.55;;;;;;;33.97;56.75;100741.69;5041151;28;66663;-34
2022/05/11 04:47:09;;;;;;;6.80;3.15;;;;;;;33.17;56.23;100607.47;5039291;28;69169;-40
2022/05/11 04:49:40;;;;;;;4.13;3.42;;;;;;;34.01;56.34;100732.78;5020794;28;66035;-34
2022/05/11 04:52:17;;;;;;;5.00;3.50;;;;;;;34.03;56.33;100740.72;5040924;28;70328;-35
2022/05/11 04:54:49;;;;;;;4.15;3.17;;;;;;;33.81;56.12;100689.72;5006827;28;66727;-35
2022/05/11 04:57:20;;;;;;;7.90;3.13;;;;;;;34.08;55.96;100718.25;5029680;28;69471;-39
2022/05/11 04:59:51;;;;;;;4.97;3.03;;;;;;;34.03;56.55;100708.06;5053626;28;66040;-37
2022/05/11 05:02:23;;;;;;;3.28;2.92;;;;;;;34.02;56.05;100703.69;5020933;28;70148;-36
2022/05/11 05:04:58;;;;;;;3.38;3.08;;;;;;;34.12;56.00;100706.59;5020190;28;65949;-35
2022/05/11 05:07:29;;;;;;;3.80;2.80;;;;;;;34.02;56.14;100677.28;5018827;28;69609;-37
2022/05/11 05:09:59;;;;;;;4.80;2.58;;;;;;;34.17;56.25;100693.06;5021002;28;66542;-35
2022/05/11 05:12:29;;;;;;;7.38;3.20;;;;;;;34.08;56.04;100659.19;5020161;28;69833;-34
2022/05/11 05:15:00;;;;;;;3.13;2.83;;;;;;;34.16;56.04;100666.94;5018731;28;65472;-35
2022/05/11 05:17:31;;;;;;;3.20;2.67;;;;;;;34.08;55.90;100650.19;5021476;28;69884;-35
2022/05/11 05:20:01;;;;;;;3.53;2.35;;;;;;;34.23;55.78;100664.84;5003407;28;65990;-35
2022/05/11 05:22:36;;;;;;;2.88;2.67;;;;;;;34.15;56.02;100639.94;5018047;28;68659;-35
2022/05/11 05:25:06;;;;;;;9.82;3.00;;;;;;;34.24;55.90;100650.19;5020576;28;66629;-34
2022/05/11 05:27:37;;;;;;;;;;;;;;;34.01;56.34;100655.75;5020560;28;69431;-34
2022/05/11 05:32:56;;;;;;;2.78;2.58;;;;;;;34.35;55.86;100644.88;5040678;28;70391;-34
2022/05/11 05:35:26;;;;;;;4.43;2.80;;;;;;;34.39;55.64;100629.69;5040402;28;66285;-35
2022/05/11 05:37:56;;;;;;;4.22;3.00;;;;;;;34.38;55.60;100628.03;5040931;28;70094;-35
2022/05/11 05:40:27;;;;;;;4.07;2.78;;;;;;;34.40;55.63;100626.72;5040542;28;65353;-36
2022/05/11 05:42:57;;;;;;;2.60;2.40;;;;;;;34.47;55.54;100623.81;5040677;28;69980;-35
2022/05/11 05:45:32;;;;;;;2.65;2.28;;;;;;;34.52;55.57;100618.47;5039024;28;65350;-36
2022/05/11 05:48:02;;;;;;;3.60;2.72;;;;;;;34.52;55.37;100610.28;5038971;28;69226;-35
2022/05/11 05:50:32;;;;;;;2.53;2.15;;;;;;;34.53;55.14;100614.66;5029893;28;65962;-35
2022/05/11 05:53:05;;;;;;;2.67;2.47;;;;;;;34.59;55.19;100601.94;5028913;28;70433;-36
2022/05/11 05:55:45;;;;;;;2.05;1.85;;;;;;;34.57;54.74;100583.13;5029357;28;65882;-36
2022/05/11 05:58:25;;;;;;;2.90;2.40;;;;;;;34.64;55.09;100578.31;5021257;28;71156;-34
2022/05/11 06:00:55;;;;;;;4.85;2.30;;;;;;;34.61;54.93;100572.56;5007171;28;66593;-35
2022/05/11 06:03:28;;;;;;;3.22;2.50;;;;;;;34.72;54.81;100576.25;5038830;28;70209;-33
2022/05/11 06:06:09;;;;;;;5.90;2.20;;;;;;;34.70;54.38;100566.41;5039999;28;66278;-35
2022/05/11 06:08:39;;;;;;;2.35;2.13;;;;;;;34.79;54.83;100565.97;5038963;28;70715;-35
2022/05/11 06:11:09;;;;;;;2.28;2.15;;;;;;;34.81;54.52;100552.91;5038280;28;66602;-33
2022/05/11 06:13:41;;;;;;;3.47;2.30;;;;;;;34.79;54.60;100547.69;5038772;28;70494;-35
2022/05/11 06:16:14;;;;;;;2.97;2.22;;;;;;;34.87;54.36;100552.69;5039122;28;65434;-34
2022/05/11 06:18:46;;;;;;;2.33;2.13;;;;;;;34.94;54.48;100549.78;5039964;28;69559;-34
2022/05/11 06:21:19;;;;;;;2.45;2.25;;;;;;;34.82;54.47;100513.69;5042118;28;65183;-34
2022/05/11 06:23:49;;;;;;;2.28;1.92;;;;;;;34.97;54.21;100522.03;5045493;28;70065;-34
2022/05/11 06:26:19;;;;;;;2.67;2.40;;;;;;;35.06;54.47;100525.13;5044575;28;66027;-35
2022/05/11 06:28:50;;;;;;;1.97;1.87;;;;;;;35.01;54.35;100501.34;5043410;28;70167;-34
2022/05/11 06:31:22;;;;;;;3.70;2.10;;;;;;;35.14;54.04;100519.22;5046565;28;65578;-35
2022/05/11 06:33:55;;;;;;;2.60;2.10;;;;;;;35.10;54.24;100505.28;5044620;28;69962;-34
2022/05/11 06:36:25;;;;;;;2.78;2.05;;;;;;;35.19;54.06;100512.97;5042326;28;65739;-34
2022/05/11 06:38:56;;;;;;;2.80;2.30;;;;;;;35.21;53.68;100499.91;5045388;28;70526;-34
2022/05/11 06:41:28;;;;;;;2.03;1.63;;;;;;;34.91;53.62;100463.91;5046572;28;66725;-35
2022/05/11 06:43:59;;;;;;;3.95;2.22;;;;;;;35.22;54.06;100496.94;5046429;28;69309;-34
2022/05/11 06:46:29;;;;;;;1.95;1.70;;;;;;;35.22;54.07;100485.22;5044765;28;66052;-34
2022/05/11 06:49:00;;;;;;;3.38;2.22;;;;;;;35.29;53.65;100480.34;5045720;28;70565;-34
2022/05/11 06:51:30;;;;;;;2.70;1.88;;;;;;;35.32;53.35;100471.66;5045046;28;66314;-35
2022/05/11 06:59:37;;;;;;;2.10;1.65;;;;;;;35.47;53.07;100460.88;5046613;28;70035;-34
2022/05/11 07:02:07;;;;;;;5.15;1.77;;;;;;;35.54;53.66;100449.72;5044739;28;65859;-34
2022/05/11 07:04:38;;;;;;;1.60;1.30;;;;;;;35.60;53.45;100450.59;5045223;28;69567;-34
2022/05/11 07:07:08;;;;;;;7.00;2.00;;;;;;;35.61;53.27;100441.31;5046314;28;65729;-35
2022/05/11 07:09:39;;;;;;;5.55;2.10;;;;;;;35.66;52.87;100444.09;5045990;28;69696;-36
2022/05/11 07:12:24;;;;;;;2.13;1.45;;;;;;;35.73;52.64;100452.88;5046027;28;65213;-34
2022/05/11 07:14:59;;;;;;;5.57;2.10;;;;;;;35.78;53.12;100456.47;5043638;28;70391;-34
2022/05/11 07:17:42;;;;;;;2.30;1.90;;;;;;;35.77;52.16;100449.38;5045201;28;66303;-36
2022/05/11 07:21:07;;;;;;;2.25;1.67;;;;;;;35.78;52.91;100450.19;5045049;28;69644;-35
2022/05/11 07:23:37;;;;;;;1.80;1.58;;;;;;;35.86;52.45;100438.78;5028804;28;66417;-35
2022/05/11 07:26:08;;;;;;;2.10;1.33;;;;;;;35.91;52.42;100446.13;5044651;28;70125;-35
2022/05/11 07:28:38;;;;;;;4.20;1.73;;;;;;;35.92;52.81;100451.34;5043047;28;66162;-35
2022/05/11 07:31:49;;;;;;;6.75;1.60;;;;;;;35.85;52.13;100456.22;5028391;28;70016;-42
2022/05/11 07:34:40;;;;;;;1.92;1.48;;;;;;;35.95;52.35;100445.34;5050526;28;66140;-34
2022/05/11 07:37:11;;;;;;;;;;;;;;;35.73;53.08;100439.25;5020205;28;69353;-35
2022/05/11 07:39:42;;;;;;;2.83;1.48;;;;;;;35.87;52.38;100434.94;5022747;28;66651;-34
2022/05/11 07:42:13;;;;;;;1.77;1.10;;;;;;;36.01;52.13;100444.28;5022494;28;69012;-34
2022/05/11 07:44:47;;;;;;;2.15;1.40;;;;;;;36.07;52.55;100433.44;5034981;28;65488;-35
2022/05/11 07:47:19;;;;;;;4.65;1.75;;;;;;;36.00;52.17;100420.81;5041705;28;70223;-34
2022/05/11 07:49:59;;;;;;;1.77;1.40;;;;;;;36.01;52.32;100417.00;5042815;28;66334;-34
2022/05/11 07:52:36;;;;;;;3.22;1.80;;;;;;;36.11;52.09;100431.78;5041318;28;69258;-33
2022/05/11 07:55:07;;;;;;;2.55;1.65;;;;;;;36.12;51.96;100434.28;5057312;28;65816;-34
2022/05/11 08:00:26;;;;;;;1.85;1.48;;;;;;;35.86;52.07;100407.91;5041445;28;66521;-34
2022/05/11 08:02:57;;;;;;;1.90;1.58;;;;;;;36.11;51.99;100448.19;5040404;28;69934;-34
2022/05/11 08:05:30;;;;;;;3.40;1.35;;;;;;;36.15;52.44;100458.31;5040429;28;66750;-37
2022/05/11 08:08:05;;;;;;;1.60;1.25;;;;;;;36.16;51.85;100461.84;5040358;28;69185;-34
2022/05/11 08:10:39;;;;;;;2.22;1.80;;;;;;;35.64;52.22;100361.72;5039964;28;66800;-34
2022/05/11 08:13:10;;;;;;;2.88;1.85;;;;;;;36.14;52.37;100450.41;5038422;28;70220;-34
2022/05/11 08:15:51;;;;;;;3.85;1.63;;;;;;;36.13;52.19;100454.19;5055394;28;66592;-35
2022/05/11 08:18:52;;;;;;;2.77;1.63;;;;;;;36.06;51.58;100448.19;5040018;28;70505;-34
2022/05/11 08:21:48;;;;;;;4.47;2.13;;;;;;;36.06;51.51;100467.28;5041731;28;65586;-34
2022/05/11 08:24:19;;;;;;;5.25;2.33;;;;;;;35.97;52.29;100454.13;5039759;28;69396;-35
2022/05/11 08:26:52;;;;;;;2.25;1.85;;;;;;;36.03;51.87;100472.16;5042027;28;66043;-35
2022/05/11 08:35:02;;;;;;;2.83;2.28;;;;;;;36.00;51.46;100499.97;5039765;28;69387;-35
2022/05/11 08:37:33;;;;;;;3.38;2.30;;;;;;;35.99;51.36;100484.66;5041396;28;65737;-35
2022/05/11 08:40:05;;;;;;;3.50;2.13;;;;;;;35.97;51.87;100466.94;5041769;28;69754;-34
2022/05/11 08:42:36;;;;;;;4.28;2.80;;;;;;;35.88;51.02;100438.50;5040616;28;66616;-34
2022/05/11 08:45:10;;;;;;;4.47;2.57;;;;;;;35.59;51.74;100403.41;5040357;28;69003;-34
2022/05/11 08:47:48;;;;;;;3.55;2.80;;;;;;;35.45;51.55;100381.22;5040816;28;66054;-35
2022/05/11 08:50:30;;;;;;;5.63;2.70;;;;;;;35.89;51.80;100479.19;5041344;28;70664;-35
2022/05/11 08:53:02;;;;;;;;;;;;;;;35.60;51.91;100486.06;5041013;28;66490;-35
2022/05/11 08:56:00;;;;;;;5.78;2.70;;;;;;;35.70;51.56;100513.44;5055981;28;70355;-33
2022/05/11 08:58:57;;;;;;;6.03;2.75;;;;;;;35.71;51.64;100501.44;5054798;28;66281;-34
2022/05/11 09:01:42;;;;;;;5.82;2.83;;;;;;;35.75;51.64;100495.19;5041188;28;69574;-36
2022/05/11 09:04:18;;;;;;;5.07;3.70;;;;;;;35.62;51.65;100446.53;5041954;28;66133;-34
2022/05/11 09:06:49;;;;;;;3.78;3.40;;;;;;;35.70;51.65;100453.41;5040238;28;69732;-34
2022/05/11 09:09:19;;;;;;;4.70;3.53;;;;;;;35.64;51.33;100459.94;5037975;28;66755;-35
2022/05/11 09:11:53;;;;;;;3.35;2.97;;;;;;;35.30;51.45;100405.63;5041072;28;70376;-34
2022/05/11 09:14:30;;;;;;;5.85;2.63;;;;;;;35.63;51.34;100450.06;5039690;28;66745;-35
2022/05/11 09:17:01;;;;;;;3.90;2.95;;;;;;;35.56;52.10;100421.13;5038876;28;69952;-35
2022/05/11 09:19:34;;;;;;;3.87;3.13;;;;;;;35.14;51.98;100358.38;5041130;28;66531;-34
2022/05/11 09:22:17;;;;;;;5.72;3.08;;;;;;;35.51;52.13;100429.25;5039733;28;69447;-34
2022/05/11 09:24:50;;;;;;;4.47;4.07;;;;;;;35.50;51.78;100421.34;5041035;28;67277;-34
2022/05/11 09:27:36;;;;;;;4.07;3.65;;;;;;;35.41;51.77;100417.44;5038811;28;69107;-33
2022/05/11 09:30:20;;;;;;;6.40;3.50;;;;;;;34.96;51.92;100348.66;5040946;28;65294;-35
2022/05/11 09:33:11;;;;;;;5.57;3.47;;;;;;;35.36;52.16;100419.06;5036593;28;70000;-35
2022/05/11 09:35:42;;;;;;;4.50;3.72;;;;;;;35.31;52.54;100420.94;5039778;28;66143;-35
2022/05/11 09:38:16;;;;;;;4.80;3.65;;;;;;;35.33;51.81;100432.41;5019429;28;70849;-35
2022/05/11 09:40:59;;;;;;;4.63;4.18;;;;;;;35.17;52.14;100423.28;5020360;28;66247;-34
2022/05/11 09:43:43;;;;;;;5.03;4.15;;;;;;;35.29;52.26;100448.44;5022381;28;70168;-34
2022/05/11 09:46:33;;;;;;;5.05;4.00;;;;;;;34.85;52.56;100409.63;5040763;28;65923;-34
2022/05/11 09:49:09;;;;;;;7.45;3.75;;;;;;;35.06;52.07;100433.28;5039362;28;69886;-34
2022/05/11 09:51:40;;;;;;;9.18;4.50;;;;;;;35.24;52.15;100472.94;5025629;28;66138;-34
2022/05/11 09:54:38;;;;;;;4.20;3.85;;;;;;;35.04;52.94;100465.38;5027467;28;70056;-35
2022/05/11 09:57:14;;;;;;;8.70;4.55;;;;;;;35.21;52.23;100478.09;5019899;28;66298;-35
2022/05/11 09:59:50;;;;;;;5.40;4.45;;;;;;;35.18;52.44;100470.44;5020739;28;69120;-35
2022/05/11 10:02:32;;;;;;;8.25;4.53;;;;;;;35.12;52.53;100473.13;5019510;28;67834;-34
2022/05/11 10:05:02;;;;;;;;;;;;;;;34.57;54.98;100463.28;5021825;28;70306;-35
2022/05/11 10:07:57;;;;;;;57.88;8.82;;;;;;;34.08;52.72;100388.91;5036369;28;65605;-37
2022/05/11 10:10:55;;;;;;;21.17;7.72;;;;;;;34.28;51.93;100461.81;5025135;28;70089;-37
2022/05/11 10:13:51;;;;;;;18.02;8.90;;;;;;;34.09;52.13;100467.56;5031794;28;66386;-35
2022/05/11 10:22:31;;;;;;;21.10;8.10;;;;;;;33.95;52.47;100477.16;5020595;28;69768;-35
2022/05/11 10:25:18;;;;;;;17.30;8.18;;;;;;;33.89;52.32;100483.59;5027393;28;66507;-35
2022/05/11 10:28:16;;;;;;;13.10;8.27;;;;;;;33.81;52.75;100465.81;5027085;28;70430;-38
2022/05/11 10:31:05;;;;;;;15.48;8.00;;;;;;;33.90;53.18;100479.78;4989513;28;65545;-35
2022/05/11 10:33:37;;;;;;;12.18;8.40;;;;;;;33.87;53.90;100485.75;5020720;28;70175;-35
2022/05/11 10:36:25;;;;;;;9.55;8.52;;;;;;;33.64;57.05;100471.28;5028168;28;66127;-36
2022/05/11 10:39:04;;;;;;;23.92;8.95;;;;;;;33.76;57.95;100501.91;5031550;28;69195;-40
2022/05/11 10:41:41;;;;;;;19.30;9.95;;;;;;;33.68;57.44;100509.66;5030381;28;65102;-36
2022/05/11 10:44:35;;;;;;;17.17;9.98;;;;;;;33.66;57.24;100523.53;5029662;28;69265;-35
2022/05/11 10:47:23;;;;;;;14.13;10.45;;;;;;;33.61;57.05;100517.19;5034939;28;65322;-36
2022/05/11 10:50:02;;;;;;;20.45;10.85;;;;;;;33.66;57.01;100509.94;5018761;28;70074;-37
2022/05/11 10:53:03;;;;;;;23.10;11.85;;;;;;;33.57;57.25;100508.69;5024676;28;65614;-38
2022/05/11 10:55:52;;;;;;;20.30;10.98;;;;;;;33.15;57.96;100446.53;5026133;28;69662;-35
2022/05/11 10:58:37;;;;;;;18.60;10.52;;;;;;;33.16;58.07;100450.91;5034181;28;65641;-34
2022/05/11 11:01:13;;;;;;;20.95;10.63;;;;;;;33.64;58.05;100525.66;5037666;28;69992;-36
2022/05/11 11:04:05;;;;;;;17.08;10.18;;;;;;;33.55;58.47;100527.97;5034974;28;66105;-39
2022/05/11 11:07:11;;;;;;;26.27;10.77;;;;;;;33.59;58.75;100520.13;5020399;28;69687;-36
2022/05/11 11:09:59;;;;;;;18.33;9.93;;;;;;;33.56;59.30;100540.50;5040699;28;66336;-34
2022/05/11 11:13:06;;;;;;;19.63;11.45;;;;;;;33.52;59.42;100541.22;5037465;28;70154;-35
2022/05/11 11:15:41;;;;;;;21.60;11.43;;;;;;;33.56;60.10;100547.84;5025871;28;65959;-36
2022/05/11 11:18:15;;;;;;;26.73;10.98;;;;;;;33.57;61.27;100552.19;5028713;28;70107;-35
2022/05/11 11:20:47;;;;;;;22.58;10.52;;;;;;;33.57;61.43;100569.34;5021909;28;65725;-36
2022/05/11 11:23:17;;;;;;;16.75;9.55;;;;;;;33.55;61.98;100576.09;5023543;28;68928;-35
2022/05/11 11:25:57;;;;;;;24.67;10.27;;;;;;;33.44;62.05;100557.94;5035684;28;66257;-35
2022/05/11 11:28:30;;;;;;;15.52;9.95;;;;;;;33.54;61.95;100585.31;5041373;28;69723;-36
2022/05/11 11:31:02;;;;;;;14.38;9.20;;;;;;;33.55;62.47;100587.00;5042814;28;65714;-35
2022/05/11 11:33:39;;;;;;;16.30;9.98;;;;;;;33.07;62.95;100521.16;5024341;28;69778;-33
2022/05/11 11:36:18;;;;;;;14.55;9.05;;;;;;;33.50;63.15;100592.31;5023523;28;66120;-37
2022/05/11 11:38:52;;;;;;;16.00;8.82;;;;;;;33.36;64.14;100579.00;5031492;28;70516;-34
2022/05/11 11:41:28;;;;;;;14.90;8.77;;;;;;;33.10;64.33;100542.41;5054162;28;64380;-36
2022/05/11 11:44:05;;;;;;;21.02;8.02;;;;;;;33.52;64.75;100614.66;5035368;28;69165;-34
2022/05/11 11:46:44;;;;;;;14.50;8.27;;;;;;;33.46;65.46;100604.72;5025994;28;65208;-39
2022/05/11 11:49:27;;;;;;;15.35;7.60;;;;;;;33.49;65.28;100610.53;5025331;28;67885;-39
2022/05/11 11:52:03;;;;;;;15.80;8.43;;;;;;;33.50;65.67;100619.50;5052292;28;66803;-37
2022/05/11 11:54:43;;;;;;;16.60;8.75;;;;;;;33.48;65.60;100613.47;5023185;28;69912;-38
2022/05/11 11:57:16;;;;;;;13.13;8.52;;;;;;;33.48;66.03;100602.59;5023732;28;66630;-39
2022/05/11 11:59:50;;;;;;;11.50;8.05;;;;;;;33.44;65.82;100594.09;5030336;28;70135;-38
2022/05/11 12:02:39;;;;;;;18.73;8.73;;;;;;;33.37;66.64;100596.97;5037452;28;66297;-36
2022/05/11 12:05:25;;;;;;;17.73;15.10;;;;;;;33.38;67.24;100597.81;5025127;28;69585;-35
2022/05/11 12:16:56;;;;;;;9.82;5.82;;;;;;;33.42;68.38;100609.00;5033163;28;70097;-35
2022/05/11 12:19:35;;;;;;;15.43;6.78;;;;;;;33.43;68.11;100610.66;5036006;28;66318;-35
2022/05/11 12:22:22;;;;;;;15.13;7.22;;;;;;;33.31;68.30;100603.38;5022728;28;70119;-35
2022/05/11 12:25:21;;;;;;;12.95;7.45;;;;;;;33.32;68.51;100615.91;5033547;28;65145;-35
2022/05/11 12:27:52;;;;;;;15.48;6.50;;;;;;;33.42;68.40;100625.31;5033745;28;69167;-35
2022/05/11 12:30:28;;;;;;;9.02;5.78;;;;;;;33.42;68.53;100628.03;5040018;28;66505;-35
2022/05/11 12:33:04;;;;;;;7.15;5.07;;;;;;;33.32;68.87;100618.63;5025702;28;69289;-36
2022/05/11 12:35:43;;;;;;;8.02;5.05;;;;;;;33.42;68.94;100641.63;5020897;28;66743;-38
2022/05/11 12:38:24;;;;;;;10.23;4.78;;;;;;;33.41;68.99;100629.13;5019489;28;69926;-35
2022/05/11 12:40:56;;;;;;;6.60;4.20;;;;;;;33.38;68.92;100625.81;5020686;28;66400;-37
2022/05/11 12:43:33;;;;;;;7.22;4.28;;;;;;;33.40;68.79;100627.47;5022676;28;70270;-36